Time;durP1;ratioP1;P1;durP2;ratioP2;P2;SDS_P1;SDS_P2;PMS_P1;PMS_P2;Temp;Humidity;BMP_temperature;BMP_pressure;BME280_temperature;BME280_humidity;BME280_pressure;Samples;Min_cycle;Max_cycle;Signal;HPM_P1;HPM_P2
2021/01/01 00:00:46;;;;;;;50.35;24.00;;;;;;;7.45;74.59;96886.28;5043857;28;20401;-85
2021/01/01 00:03:12;;;;;;;41.45;21.17;;;;;;;7.47;74.37;96891.53;5021264;28;20044;-85
2021/01/01 00:05:38;;;;;;;36.72;18.00;;;;;;;7.44;74.35;96894.38;5021531;28;20033;-86
2021/01/01 00:08:05;;;;;;;24.05;11.90;;;;;;;7.35;74.43;96901.06;5035238;28;20453;-84
2021/01/01 00:10:30;;;;;;;25.30;9.95;;;;;;;7.28;73.16;96899.75;5003036;28;20034;-90
2021/01/01 00:12:56;;;;;;;22.50;11.05;;;;;;;7.12;73.71;96898.94;5010168;28;20088;-87
2021/01/01 00:15:22;;;;;;;18.25;9.85;;;;;;;7.14;73.13;96904.19;5050819;28;20028;-86
2021/01/01 00:17:48;;;;;;;15.60;6.85;;;;;;;7.15;72.39;96909.38;5011481;28;20113;-86
2021/01/01 00:20:13;;;;;;;25.35;11.00;;;;;;;7.09;74.62;96904.44;5015624;28;20092;-87
2021/01/01 00:22:41;;;;;;;22.85;10.85;;;;;;;7.03;75.83;96915.41;5015654;28;20034;-86
2021/01/01 00:25:08;;;;;;;22.95;10.80;;;;;;;6.84;77.92;96918.28;5046528;28;20043;-86
2021/01/01 00:27:34;;;;;;;23.23;11.40;;;;;;;6.77;78.23;96924.03;5054798;28;20035;-86
2021/01/01 00:29:59;;;;;;;50.17;26.77;;;;;;;6.70;78.19;96931.50;5046914;28;20029;-87
2021/01/01 00:32:25;;;;;;;44.30;19.98;;;;;;;6.59;78.45;96920.59;5002581;28;20037;-86
2021/01/01 00:34:51;;;;;;;36.25;18.80;;;;;;;6.54;77.71;96928.00;5036790;28;20522;-86
2021/01/01 00:37:17;;;;;;;45.28;21.05;;;;;;;6.50;79.18;96922.00;5036435;28;20036;-86
2021/01/01 00:39:43;;;;;;;47.97;25.10;;;;;;;6.45;79.42;96923.19;5036927;28;20173;-86
2021/01/01 00:42:09;;;;;;;60.70;27.33;;;;;;;6.33;79.23;96923.88;5004506;28;20037;-86
2021/01/01 00:44:34;;;;;;;41.58;20.63;;;;;;;6.30;79.15;96932.00;5052438;28;20037;-85
2021/01/01 00:47:01;;;;;;;30.40;14.63;;;;;;;6.24;77.84;96927.91;5040186;28;20374;-86
2021/01/01 00:49:26;;;;;;;32.67;16.48;;;;;;;6.25;78.40;96942.00;5014268;28;20029;-86
2021/01/01 00:51:52;;;;;;;29.92;14.07;;;;;;;6.26;77.87;96941.06;5021645;28;20030;-86
2021/01/01 00:54:18;;;;;;;33.90;15.27;;;;;;;6.20;77.94;96949.38;5028126;28;20561;-85
2021/01/01 00:56:43;;;;;;;22.55;10.90;;;;;;;6.22;77.04;96960.75;5056468;28;20377;-87
2021/01/01 00:59:09;;;;;;;23.83;11.02;;;;;;;6.17;77.13;96954.84;5039968;28;20055;-85
2021/01/01 01:01:35;;;;;;;18.88;9.88;;;;;;;6.27;76.06;96946.31;5040432;28;20024;-86
2021/01/01 01:04:00;;;;;;;22.42;11.18;;;;;;;6.25;77.13;96952.63;5056037;28;20029;-87
2021/01/01 01:06:27;;;;;;;35.22;17.88;;;;;;;6.17;78.73;96955.72;5038133;28;20446;-86
2021/01/01 01:08:53;;;;;;;34.47;17.38;;;;;;;6.14;78.47;96960.34;5019108;28;20033;-86
2021/01/01 01:11:24;;;;;;;39.75;18.30;;;;;;;6.01;80.27;96954.81;5034873;28;20408;-85
2021/01/01 01:13:50;;;;;;;43.05;18.02;;;;;;;5.94;79.24;96950.75;5035420;28;20033;-85
2021/01/01 01:16:26;;;;;;;27.98;14.63;;;;;;;5.88;78.00;96946.66;5019316;28;20033;-85
2021/01/01 01:18:52;;;;;;;23.27;10.88;;;;;;;5.87;77.67;96958.22;5035820;28;20040;-86
2021/01/01 01:21:19;;;;;;;22.35;10.38;;;;;;;5.92;77.31;96969.44;5018913;28;20032;-86
2021/01/01 01:23:45;;;;;;;28.63;13.40;;;;;;;5.93;78.12;96968.50;5027109;28;20400;-86
2021/01/01 01:26:11;;;;;;;18.17;8.68;;;;;;;5.95;78.11;96969.28;5036634;28;20025;-85
2021/01/01 01:28:37;;;;;;;24.05;10.77;;;;;;;5.98;77.65;96971.78;5055065;28;20033;-86
2021/01/01 01:31:03;;;;;;;17.25;7.65;;;;;;;6.05;76.12;96968.78;5025401;28;20460;-86
2021/01/01 01:33:28;;;;;;;25.45;9.77;;;;;;;6.09;75.93;96967.69;5035858;28;20111;-86
2021/01/01 01:35:54;;;;;;;17.80;8.82;;;;;;;6.03;77.05;96982.13;5034903;28;20044;-86
2021/01/01 01:38:20;;;;;;;15.80;6.38;;;;;;;6.02;76.69;96972.47;5034571;28;20033;-86
2021/01/01 01:40:46;;;;;;;15.80;6.75;;;;;;;5.95;77.56;96985.19;5039067;28;20047;-86
2021/01/01 01:43:11;;;;;;;10.80;6.20;;;;;;;5.77;77.83;96991.44;5024062;28;20029;-87
2021/01/01 01:45:37;;;;;;;13.55;7.05;;;;;;;5.69;79.20;97000.75;5020117;28;20031;-86
2021/01/01 01:48:04;;;;;;;22.48;10.18;;;;;;;5.60;79.64;96999.41;5033542;28;20027;-86
2021/01/01 01:50:30;;;;;;;19.10;9.13;;;;;;;5.37;81.98;96994.41;5018729;28;20111;-86
2021/01/01 01:52:57;;;;;;;18.90;8.50;;;;;;;5.27;82.01;96998.44;5019186;28;20056;-87
2021/01/01 01:55:22;;;;;;;19.45;8.63;;;;;;;5.28;81.84;97000.19;5035390;28;20114;-87
2021/01/01 01:57:48;;;;;;;17.75;8.95;;;;;;;5.40;81.13;97004.88;5019167;28;20033;-87
2021/01/01 02:00:42;;;;;;;19.60;9.00;;;;;;;5.30;81.04;96990.34;5041347;28;20052;-87
2021/01/01 02:03:14;;;;;;;15.50;8.60;;;;;;;5.39;82.24;96998.69;5021758;28;20028;-87
2021/01/01 02:05:40;;;;;;;16.58;8.52;;;;;;;5.34;83.17;96999.88;5035114;28;20468;-84
2021/01/01 02:08:05;;;;;;;11.57;6.55;;;;;;;5.42;79.68;97001.19;5031712;28;20075;-85
2021/01/01 02:10:32;;;;;;;20.77;10.45;;;;;;;5.38;81.68;97002.28;5038189;28;20043;-85
2021/01/01 02:12:57;;;;;;;24.90;12.57;;;;;;;5.28;83.19;97008.13;5050153;28;20103;-87
2021/01/01 02:15:23;;;;;;;20.48;10.07;;;;;;;5.20;82.53;97008.50;5034453;28;20534;-87
2021/01/01 02:17:49;;;;;;;14.07;7.10;;;;;;;5.14;83.58;97005.28;5027515;28;20075;-87
2021/01/01 02:20:15;;;;;;;10.80;5.70;;;;;;;5.08;83.46;97016.19;5034644;28;20090;-87
2021/01/01 02:22:41;;;;;;;11.20;5.70;;;;;;;4.98;84.13;97014.94;5018331;28;20411;-87
2021/01/01 02:25:09;;;;;;;14.32;6.05;;;;;;;4.92;84.32;97022.22;5032225;28;20020;-87
2021/01/01 02:27:35;;;;;;;16.48;6.30;;;;;;;4.89;85.47;97022.38;5030998;28;20029;-87
2021/01/01 02:30:01;;;;;;;16.60;6.90;;;;;;;4.87;86.12;97011.00;5027004;28;20025;-87
2021/01/01 02:32:27;;;;;;;15.93;6.78;;;;;;;4.81;85.12;97019.25;5036068;28;20455;-86
2021/01/01 02:34:52;;;;;;;23.15;9.38;;;;;;;4.72;85.69;97030.28;5022886;28;20507;-88
2021/01/01 02:37:18;;;;;;;15.48;7.28;;;;;;;4.71;87.15;97023.25;5038670;28;20031;-86
2021/01/01 02:39:44;;;;;;;16.98;8.50;;;;;;;4.71;85.96;97015.31;5038038;28;20119;-86
2021/01/01 02:42:09;;;;;;;22.05;10.88;;;;;;;4.72;86.19;97018.81;5038060;28;20028;-87
2021/01/01 02:44:35;;;;;;;45.33;22.55;;;;;;;4.67;87.30;97027.00;5038008;28;20102;-87
2021/01/01 02:47:04;;;;;;;37.45;18.35;;;;;;;4.64;87.75;97024.50;5026628;28;20492;-86
2021/01/01 02:49:31;;;;;;;39.80;19.67;;;;;;;4.60;87.85;97022.91;5034333;28;20032;-87
2021/01/01 02:51:57;;;;;;;44.03;21.10;;;;;;;4.55;88.79;97019.63;5050578;28;20033;-87
2021/01/01 02:54:23;;;;;;;39.10;19.20;;;;;;;4.50;88.49;97011.03;5018565;28;20025;-87
2021/01/01 02:56:49;;;;;;;35.40;18.08;;;;;;;4.54;89.00;97023.19;5028198;28;20040;-86
2021/01/01 02:59:14;;;;;;;36.30;18.02;;;;;;;4.52;89.08;97019.78;5037693;28;20032;-87
2021/01/01 03:01:40;;;;;;;37.95;18.67;;;;;;;4.48;89.47;97018.19;5020929;28;20078;-86
2021/01/01 03:04:06;;;;;;;37.35;18.75;;;;;;;4.48;89.84;97023.50;5030226;28;20082;-87
2021/01/01 03:06:31;;;;;;;35.42;15.68;;;;;;;4.48;90.85;97027.91;5054806;28;20032;-87
2021/01/01 03:08:57;;;;;;;40.22;18.15;;;;;;;4.35;90.65;97022.31;5021204;28;20040;-86
2021/01/01 03:11:23;;;;;;;34.13;15.30;;;;;;;4.33;90.27;97022.41;5047556;28;20033;-87
2021/01/01 03:13:48;;;;;;;18.85;9.98;;;;;;;4.26;90.52;97022.75;5025931;28;20036;-87
2021/01/01 03:16:14;;;;;;;12.93;7.40;;;;;;;4.16;90.15;97026.72;5050698;28;20565;-86
2021/01/01 03:18:40;;;;;;;15.63;8.85;;;;;;;4.11;90.49;97023.44;5032627;28;20028;-86
2021/01/01 03:21:05;;;;;;;15.93;7.82;;;;;;;3.99;90.87;97026.63;5041851;28;20021;-86
2021/01/01 03:23:31;;;;;;;21.05;7.88;;;;;;;3.96;91.25;97021.47;5041346;28;20035;-86
2021/01/01 03:25:56;;;;;;;18.65;7.57;;;;;;;3.99;92.25;97029.28;5033445;28;20090;-85
2021/01/01 03:28:22;;;;;;;15.27;7.45;;;;;;;3.94;92.40;97023.34;5036102;28;20071;-85
2021/01/01 03:30:48;;;;;;;14.20;7.10;;;;;;;3.89;92.62;97026.19;5020991;28;20480;-84
2021/01/01 03:33:13;;;;;;;16.45;7.90;;;;;;;3.90;92.00;97027.03;5021601;28;20028;-86
2021/01/01 03:35:39;;;;;;;17.38;6.80;;;;;;;3.89;91.97;97020.88;5021659;28;20455;-85
2021/01/01 03:38:06;;;;;;;18.50;9.43;;;;;;;3.81;91.34;97037.09;5021525;28;20056;-85
2021/01/01 03:40:31;;;;;;;21.60;9.30;;;;;;;3.88;91.61;97036.84;5028199;28;20082;-86
2021/01/01 03:42:58;;;;;;;22.10;10.88;;;;;;;3.80;91.70;97038.03;5023194;28;20028;-86
2021/01/01 03:45:24;;;;;;;24.60;12.52;;;;;;;3.79;92.09;97032.78;5030736;28;20084;-86
2021/01/01 03:47:50;;;;;;;35.55;17.15;;;;;;;3.75;92.89;97036.50;5029937;28;20056;-86
2021/01/01 03:50:15;;;;;;;48.90;21.08;;;;;;;3.74;92.63;97038.28;5028177;28;20432;-86
2021/01/01 03:52:41;;;;;;;68.68;30.95;;;;;;;3.72;92.81;97034.84;5042060;28;20102;-86
2021/01/01 03:55:07;;;;;;;59.20;26.08;;;;;;;3.72;92.57;97039.28;5054098;28;20111;-87
2021/01/01 03:57:33;;;;;;;100.63;36.38;;;;;;;3.64;92.90;97033.44;5024099;28;20507;-86
2021/01/01 03:59:58;;;;;;;63.97;26.00;;;;;;;3.67;92.79;97042.13;5033940;28;20032;-86
2021/01/01 04:02:24;;;;;;;46.80;20.17;;;;;;;3.64;93.29;97036.97;5026727;28;20109;-86
2021/01/01 04:04:50;;;;;;;41.58;19.50;;;;;;;3.60;93.55;97032.72;5014874;28;20109;-85
2021/01/01 04:07:16;;;;;;;32.70;15.57;;;;;;;3.59;93.25;97036.31;5021680;28;20022;-86
2021/01/01 04:09:42;;;;;;;34.42;14.52;;;;;;;3.56;93.24;97031.16;5013023;28;20032;-86
2021/01/01 04:12:08;;;;;;;28.77;12.93;;;;;;;3.47;94.43;97042.13;5037288;28;20031;-86
2021/01/01 04:14:34;;;;;;;31.83;14.70;;;;;;;3.45;94.66;97059.81;5037186;28;20476;-86
2021/01/01 04:16:59;;;;;;;24.45;12.57;;;;;;;3.40;94.22;97045.94;5037463;28;20066;-86
2021/01/01 04:19:25;;;;;;;22.95;10.70;;;;;;;3.34;94.49;97054.13;5038297;28;20070;-86
2021/01/01 04:21:51;;;;;;;23.98;11.88;;;;;;;3.36;95.01;97059.31;5054458;28;20116;-85
2021/01/01 04:24:18;;;;;;;25.45;12.60;;;;;;;3.24;95.22;97055.41;5032105;28;20034;-87
2021/01/01 04:26:47;;;;;;;35.58;18.35;;;;;;;3.19;95.52;97057.41;5022715;28;20060;-85
2021/01/01 04:29:12;;;;;;;40.95;18.98;;;;;;;3.32;95.99;97074.47;5018228;28;20127;-86
2021/01/01 04:31:38;;;;;;;40.90;18.17;;;;;;;3.26;95.94;97070.28;5026572;28;20026;-86
2021/01/01 04:34:05;;;;;;;44.83;21.23;;;;;;;3.24;96.39;97082.69;5036708;28;20125;-87
2021/01/01 04:36:31;;;;;;;41.65;18.48;;;;;;;3.20;96.50;97081.09;5029092;28;20021;-86
2021/01/01 04:38:56;;;;;;;61.53;27.23;;;;;;;3.18;96.21;97082.09;5052436;28;20039;-85
2021/01/01 04:41:22;;;;;;;48.85;24.25;;;;;;;3.18;95.71;97087.38;5004455;28;20014;-85
2021/01/01 04:43:51;;;;;;;62.40;26.88;;;;;;;3.13;95.52;97079.66;5012921;28;20508;-85
2021/01/01 04:46:18;;;;;;;55.75;24.00;;;;;;;3.11;95.16;97085.88;5020776;28;20086;-85
2021/01/01 04:48:44;;;;;;;44.38;20.67;;;;;;;2.96;96.24;97087.38;5036545;28;20124;-86
2021/01/01 04:51:10;;;;;;;48.97;22.83;;;;;;;2.95;96.73;97090.09;5052643;28;20040;-85
2021/01/01 04:53:40;;;;;;;44.95;22.40;;;;;;;2.92;96.58;97090.19;5035843;28;20052;-85
2021/01/01 04:56:07;;;;;;;51.30;23.40;;;;;;;2.98;96.92;97111.09;5001704;28;20062;-85
2021/01/01 04:58:34;;;;;;;50.85;24.02;;;;;;;2.92;96.50;97090.19;5016671;28;20075;-86
2021/01/01 05:01:00;;;;;;;54.13;24.05;;;;;;;2.89;96.05;97100.88;5017585;28;20117;-85
2021/01/01 05:03:26;;;;;;;53.17;22.55;;;;;;;2.88;96.05;97096.50;5027586;28;20036;-85
2021/01/01 05:05:52;;;;;;;46.90;23.40;;;;;;;2.77;96.83;97090.81;5013048;28;20052;-85
2021/01/01 05:08:18;;;;;;;49.47;25.20;;;;;;;2.86;96.29;97096.56;5049168;28;20538;-84
2021/01/01 05:10:45;;;;;;;55.75;24.45;;;;;;;2.94;97.14;97104.19;5015929;28;20090;-85
2021/01/01 05:13:29;;;;;;;51.47;22.67;;;;;;;2.86;96.00;97101.00;5016017;28;20480;-85
2021/01/01 05:15:54;;;;;;;49.97;21.88;;;;;;;2.87;96.13;97108.84;5032099;28;20032;-85
2021/01/01 05:18:25;;;;;;;43.08;18.10;;;;;;;2.86;95.38;97106.28;5049095;28;20025;-85
2021/01/01 05:20:54;;;;;;;66.90;30.25;;;;;;;2.88;95.75;97113.22;5017252;28;20034;-87
2021/01/01 05:23:23;;;;;;;49.85;20.75;;;;;;;2.86;96.12;97115.03;5016187;28;20021;-87
2021/01/01 05:26:07;;;;;;;33.88;14.60;;;;;;;2.86;95.00;97122.13;5049493;28;20032;-86
2021/01/01 05:28:50;;;;;;;15.43;8.13;;;;;;;2.72;93.56;97115.59;5036866;28;20021;-87
2021/01/01 05:31:20;;;;;;;15.60;7.03;;;;;;;2.60;94.96;97116.06;5025146;28;20037;-86
2021/01/01 05:34:13;;;;;;;11.75;6.63;;;;;;;2.51;96.22;97126.09;5018023;28;20096;-86
2021/01/01 05:36:45;;;;;;;;;;;;;;;2.52;96.28;97130.47;5040458;28;20028;-86
2021/01/01 05:39:14;;;;;;;14.85;7.38;;;;;;;2.41;96.53;97135.25;5016762;28;19913;-86
2021/01/01 05:41:44;;;;;;;20.42;11.07;;;;;;;2.28;97.64;97134.00;5029423;28;20428;-86
2021/01/01 05:44:19;;;;;;;20.30;10.05;;;;;;;2.34;96.89;97147.81;5018809;28;20033;-87
2021/01/01 05:47:06;;;;;;;22.10;9.98;;;;;;;2.26;97.68;97151.63;5052681;28;20507;-86
2021/01/01 05:49:41;;;;;;;19.17;9.07;;;;;;;2.22;97.83;97160.56;5052309;28;20025;-86
2021/01/01 05:52:08;;;;;;;23.00;11.43;;;;;;;2.19;99.01;97162.41;5055066;28;20119;-85
2021/01/01 05:54:35;;;;;;;21.10;10.75;;;;;;;2.17;98.89;97166.03;5047585;28;20033;-87
2021/01/01 05:57:05;;;;;;;20.13;10.48;;;;;;;2.25;98.86;97169.25;5024721;28;20048;-85
2021/01/01 05:59:35;;;;;;;25.92;10.65;;;;;;;2.27;98.83;97175.34;5023694;28;20029;-86
2021/01/01 06:02:02;;;;;;;36.00;15.10;;;;;;;2.29;98.73;97178.78;5015542;28;20186;-86
2021/01/01 06:04:28;;;;;;;39.97;22.73;;;;;;;2.28;99.09;97170.94;5030968;28;20024;-86
2021/01/01 06:06:54;;;;;;;47.92;24.75;;;;;;;2.38;99.15;97185.50;5031574;28;20032;-86
2021/01/01 06:09:23;;;;;;;47.15;24.02;;;;;;;2.41;98.78;97193.31;5029839;28;20106;-85
2021/01/01 06:12:02;;;;;;;36.88;20.40;;;;;;;2.47;98.61;97193.09;5016408;28;20025;-85
2021/01/01 06:14:36;;;;;;;46.67;24.95;;;;;;;2.51;98.45;97194.72;5048626;28;20088;-86
2021/01/01 06:17:22;;;;;;;73.78;38.72;;;;;;;2.60;97.93;97199.66;5020424;28;20120;-85
2021/01/01 06:19:53;;;;;;;77.57;34.85;;;;;;;2.58;97.84;97190.94;5024089;28;20059;-85
2021/01/01 06:22:25;;;;;;;77.90;36.65;;;;;;;2.57;97.68;97200.63;5037062;28;20119;-85
2021/01/01 06:24:56;;;;;;;83.15;35.88;;;;;;;2.59;97.68;97204.06;5032762;28;20072;-84
2021/01/01 06:27:24;;;;;;;89.15;39.28;;;;;;;2.71;96.72;97208.91;5026832;28;20024;-83
2021/01/01 06:29:55;;;;;;;82.15;34.95;;;;;;;2.75;95.10;97199.09;5031359;28;20481;-85
2021/01/01 06:32:21;;;;;;;60.90;27.88;;;;;;;2.77;94.01;97193.78;5035815;28;20032;-84
2021/01/01 06:34:48;;;;;;;50.58;23.95;;;;;;;2.87;92.87;97200.41;5054402;28;20036;-86
2021/01/01 06:37:36;;;;;;;60.53;26.52;;;;;;;2.88;93.72;97205.66;5026531;28;20037;-85
2021/01/01 06:40:04;;;;;;;59.95;28.15;;;;;;;2.91;94.15;97210.81;5034757;28;20097;-85
2021/01/01 06:43:08;;;;;;;64.70;30.23;;;;;;;3.05;92.99;97203.22;5047085;28;20702;-85
2021/01/01 06:45:42;;;;;;;58.72;27.52;;;;;;;3.11;93.03;97210.91;4978758;28;20062;-84
2021/01/01 06:48:12;;;;;;;59.35;28.58;;;;;;;3.16;92.50;97208.13;4977969;28;20060;-85
2021/01/01 06:50:42;;;;;;;67.82;33.88;;;;;;;3.40;91.40;97208.94;5033616;28;20064;-85
2021/01/01 06:53:11;;;;;;;58.05;28.25;;;;;;;4.44;86.44;97224.91;5038684;28;20063;-85
2021/01/01 06:55:38;;;;;;;44.10;19.00;;;;;;;5.88;77.68;97229.75;5052471;28;20025;-86
2021/01/01 06:58:05;;;;;;;35.20;17.45;;;;;;;7.31;70.53;97221.44;5030777;28;20032;-84
2021/01/01 07:00:48;;;;;;;36.42;16.85;;;;;;;8.66;63.99;97235.00;5033173;28;20476;-85
2021/01/01 07:03:29;;;;;;;31.67;15.10;;;;;;;10.15;57.89;97229.22;5036600;28;20103;-86
2021/01/01 07:05:56;;;;;;;27.73;12.38;;;;;;;11.32;53.41;97236.31;5063066;28;20040;-85
2021/01/01 07:08:41;;;;;;;22.67;12.23;;;;;;;11.77;51.56;97247.47;5019471;28;20033;-85
2021/01/01 07:11:29;;;;;;;113.18;45.45;;;;;;;12.31;49.59;97246.13;5064684;28;20036;-85
2021/01/01 07:13:56;;;;;;;62.15;34.03;;;;;;;12.96;47.63;97249.25;5058366;28;20427;-85
2021/01/01 07:16:26;;;;;;;59.33;29.70;;;;;;;13.40;46.83;97255.75;5046608;28;20477;-86
2021/01/01 07:18:53;;;;;;;73.72;36.53;;;;;;;13.87;45.32;97260.06;5036985;28;20113;-85
2021/01/01 07:21:27;;;;;;;58.42;29.98;;;;;;;14.43;43.30;97253.66;5040590;28;20025;-87
2021/01/01 07:24:01;;;;;;;101.25;56.00;;;;;;;14.68;43.07;97265.09;5043438;28;20487;-86
2021/01/01 07:26:27;;;;;;;79.03;45.72;;;;;;;14.73;42.44;97263.75;5021219;28;20028;-86
2021/01/01 07:28:55;;;;;;;48.38;27.05;;;;;;;15.06;41.84;97258.22;5035705;28;20032;-85
2021/01/01 07:31:21;;;;;;;70.00;38.38;;;;;;;15.49;41.48;97268.91;5030630;28;20079;-85
2021/01/01 07:33:48;;;;;;;137.05;67.22;;;;;;;16.02;39.54;97266.09;5037373;28;20036;-85
2021/01/01 07:36:15;;;;;;;76.53;41.65;;;;;;;16.16;38.92;97269.25;5030762;28;20028;-86
2021/01/01 07:38:42;;;;;;;77.75;45.58;;;;;;;16.58;39.32;97274.56;5018992;28;20057;-86
2021/01/01 07:41:08;;;;;;;82.85;47.17;;;;;;;16.64;38.70;97274.81;5021428;28;20461;-87
2021/01/01 07:43:34;;;;;;;72.05;40.50;;;;;;;16.72;37.79;97277.69;5033198;28;20029;-85
2021/01/01 07:46:03;;;;;;;72.80;39.80;;;;;;;16.57;38.22;97281.78;5020687;28;20548;-88
2021/01/01 07:48:28;;;;;;;69.22;40.97;;;;;;;16.90;39.14;97287.81;5026154;28;20094;-87
2021/01/01 07:51:05;;;;;;;54.97;32.55;;;;;;;17.09;38.35;97294.09;5018625;28;20030;-87
2021/01/01 07:53:31;;;;;;;39.63;22.42;;;;;;;16.68;37.85;97278.97;5034468;28;20045;-85
2021/01/01 07:56:02;;;;;;;41.15;20.45;;;;;;;16.04;39.81;97281.16;5053930;28;20368;-88
2021/01/01 07:58:29;;;;;;;36.95;17.80;;;;;;;16.21;39.29;97282.38;5031948;28;20115;-85
2021/01/01 08:01:00;;;;;;;25.15;14.45;;;;;;;17.07;38.08;97287.97;5040001;28;20031;-85
2021/01/01 08:03:26;;;;;;;29.13;16.70;;;;;;;17.18;38.43;97284.28;5039979;28;20503;-87
2021/01/01 08:05:52;;;;;;;29.67;16.42;;;;;;;17.38;39.16;97285.97;5041948;28;20271;-85
2021/01/01 08:08:20;;;;;;;23.73;12.30;;;;;;;18.05;36.51;97290.44;5057547;28;20036;-85
2021/01/01 08:10:50;;;;;;;22.05;12.15;;;;;;;18.15;36.43;97292.09;5031051;28;20040;-83
2021/01/01 08:13:33;;;;;;;33.67;18.38;;;;;;;18.18;36.04;97297.22;5049019;28;20148;-85
2021/01/01 08:16:10;;;;;;;14.30;8.52;;;;;;;17.80;37.24;97292.78;5019636;28;20033;-84
2021/01/01 08:18:36;;;;;;;12.73;6.72;;;;;;;17.06;38.32;97282.72;5034745;28;20025;-85
2021/01/01 08:21:05;;;;;;;12.05;7.07;;;;;;;16.95;38.19;97291.78;5038817;28;20500;-85
2021/01/01 08:24:08;;;;;;;9.45;5.70;;;;;;;16.27;39.14;97300.72;5017083;28;20048;-86
2021/01/01 08:26:35;;;;;;;9.60;5.38;;;;;;;16.61;39.35;97299.41;5057371;28;20494;-86
2021/01/01 08:29:01;;;;;;;15.20;6.32;;;;;;;16.44;39.73;97300.03;5023986;28;20128;-87
2021/01/01 08:31:27;;;;;;;10.35;5.65;;;;;;;17.33;37.38;97309.88;5019811;28;20028;-86
2021/01/01 08:33:53;;;;;;;13.85;6.88;;;;;;;18.71;35.07;97315.56;5028024;28;20513;-85
2021/01/01 08:36:19;;;;;;;11.77;5.28;;;;;;;19.23;33.58;97308.50;5059402;28;20032;-87
2021/01/01 08:38:46;;;;;;;13.95;5.82;;;;;;;18.64;35.49;97318.00;5051858;28;20107;-85
2021/01/01 08:41:16;;;;;;;8.82;5.60;;;;;;;18.26;35.79;97310.03;5034638;28;20091;-85
2021/01/01 08:43:41;;;;;;;17.25;9.05;;;;;;;19.00;35.44;97320.81;5047942;28;20396;-85
2021/01/01 08:46:17;;;;;;;9.07;5.40;;;;;;;19.41;33.58;97314.84;5046583;28;20028;-84
2021/01/01 08:48:43;;;;;;;11.40;6.03;;;;;;;20.03;32.27;97311.94;5042846;28;20048;-86
2021/01/01 08:51:09;;;;;;;8.88;5.65;;;;;;;19.88;33.10;97318.97;5040343;28;20091;-84
2021/01/01 08:53:41;;;;;;;11.70;6.68;;;;;;;19.84;32.47;97306.69;5057258;28;20060;-84
2021/01/01 08:56:08;;;;;;;8.52;5.25;;;;;;;19.90;32.12;97316.09;5059458;28;20035;-84
2021/01/01 08:58:34;;;;;;;12.80;6.00;;;;;;;20.64;31.10;97321.81;5041212;28;20071;-84
2021/01/01 09:01:14;;;;;;;9.13;5.82;;;;;;;21.72;29.70;97308.16;5058687;28;20457;-88
2021/01/01 09:03:41;;;;;;;9.93;5.43;;;;;;;21.73;29.31;97309.88;5041647;28;20492;-89
2021/01/01 09:06:16;;;;;;;12.23;6.03;;;;;;;21.73;30.28;97314.47;5042000;28;20115;-88
2021/01/01 09:08:41;;;;;;;7.43;4.60;;;;;;;21.15;29.49;97307.25;5039605;28;20027;-84
2021/01/01 09:11:20;;;;;;;9.45;5.55;;;;;;;21.29;30.06;97314.75;5040199;28;20032;-88
2021/01/01 09:13:58;;;;;;;57.33;22.52;;;;;;;20.84;30.75;97309.69;5054731;28;20015;-92
2021/01/01 09:16:24;;;;;;;15.07;8.45;;;;;;;22.40;28.25;97318.66;5053892;28;20019;-92
2021/01/01 09:18:49;;;;;;;16.77;9.70;;;;;;;23.51;25.07;97312.06;5050087;28;20124;-87
2021/01/01 09:21:17;;;;;;;14.65;9.32;;;;;;;24.58;24.26;97309.91;5019509;28;20056;-80
2021/01/01 09:23:55;;;;;;;13.00;7.53;;;;;;;25.01;22.88;97304.66;5024177;28;20041;-86
2021/01/01 09:26:24;;;;;;;21.17;5.47;;;;;;;25.12;22.62;97305.03;5053223;28;20041;-87
2021/01/01 09:29:00;;;;;;;3.70;2.75;;;;;;;23.13;23.48;97300.19;5026750;28;20059;-86
2021/01/01 09:31:25;;;;;;;9.95;6.25;;;;;;;24.32;23.35;97303.22;5047771;28;20033;-87
2021/01/01 09:33:58;;;;;;;10.07;6.05;;;;;;;24.56;22.45;97301.06;5049854;28;20502;-88
2021/01/01 09:36:23;;;;;;;4.25;2.10;;;;;;;24.58;22.06;97298.16;5046589;28;20033;-88
2021/01/01 09:38:49;;;;;;;7.03;4.57;;;;;;;24.12;22.29;97302.88;5047251;28;20086;-88
2021/01/01 09:41:16;;;;;;;8.98;5.82;;;;;;;24.10;22.70;97304.94;5028336;28;20035;-90
2021/01/01 09:43:43;;;;;;;17.25;11.05;;;;;;;24.13;22.93;97299.13;5017288;28;20028;-90
2021/01/01 09:46:09;;;;;;;17.45;12.05;;;;;;;23.45;24.20;97310.94;5027432;28;20352;-85
2021/01/01 09:48:34;;;;;;;3.05;2.30;;;;;;;23.46;22.84;97314.50;5038466;28;20027;-83
2021/01/01 09:51:00;;;;;;;13.68;4.57;;;;;;;23.97;22.93;97311.03;5045713;28;20029;-87
2021/01/01 09:53:25;;;;;;;9.60;6.75;;;;;;;24.30;22.89;97306.16;5026441;28;20044;-89
2021/01/01 09:55:51;;;;;;;5.43;3.80;;;;;;;21.68;25.00;97301.38;5023035;28;20020;-90
2021/01/01 09:58:18;;;;;;;4.85;1.75;;;;;;;22.08;24.67;97303.25;5022238;28;20056;-90
2021/01/01 10:00:44;;;;;;;11.95;4.25;;;;;;;23.11;23.47;97304.97;5017640;28;20119;-87
2021/01/01 10:03:10;;;;;;;3.92;2.30;;;;;;;23.72;23.17;97302.19;5031714;28;20020;-86
2021/01/01 10:05:36;;;;;;;3.45;2.22;;;;;;;24.35;22.52;97297.38;5034358;28;20039;-86
2021/01/01 10:08:02;;;;;;;4.88;3.50;;;;;;;25.44;21.34;97303.69;5020845;28;20115;-88
2021/01/01 10:10:32;;;;;;;6.78;3.95;;;;;;;23.81;22.99;97296.66;5020369;28;20085;-85
2021/01/01 10:12:59;;;;;;;10.65;5.53;;;;;;;23.16;22.98;97306.13;5041674;28;20029;-87
2021/01/01 10:15:25;;;;;;;3.95;2.05;;;;;;;22.92;23.12;97292.59;5023799;28;20100;-83
2021/01/01 10:17:50;;;;;;;17.70;8.82;;;;;;;22.10;24.50;97287.56;5052439;28;20054;-88
2021/01/01 10:20:16;;;;;;;11.43;5.15;;;;;;;21.42;25.22;97292.50;5029807;28;20459;-85
2021/01/01 10:22:42;;;;;;;7.55;3.72;;;;;;;22.58;24.95;97290.16;5043956;28;20036;-85
2021/01/01 10:25:08;;;;;;;7.60;3.35;;;;;;;22.30;24.82;97285.31;5042417;28;20146;-84
2021/01/01 10:27:34;;;;;;;47.88;34.40;;;;;;;23.06;23.56;97283.69;5050853;28;20040;-85
2021/01/01 10:29:59;;;;;;;7.82;4.85;;;;;;;21.93;24.53;97267.66;5032412;28;20112;-86
2021/01/01 10:32:25;;;;;;;4.00;2.17;;;;;;;22.70;23.56;97274.31;5032292;28;20422;-85
2021/01/01 10:34:50;;;;;;;4.20;2.17;;;;;;;24.20;21.56;97272.75;5070841;28;20498;-83
2021/01/01 10:37:17;;;;;;;3.88;2.50;;;;;;;24.82;21.80;97278.75;5052517;28;20032;-86
2021/01/01 10:39:44;;;;;;;5.90;3.13;;;;;;;25.09;20.64;97263.47;5052664;28;20032;-83
2021/01/01 10:42:09;;;;;;;6.68;3.70;;;;;;;25.57;20.62;97259.19;5032766;28;20090;-93
2021/01/01 10:44:36;;;;;;;6.60;4.28;;;;;;;26.63;19.98;97267.25;5021239;28;20026;-90
2021/01/01 10:47:02;;;;;;;6.18;2.80;;;;;;;26.79;19.29;97265.00;5040052;28;20029;-93
2021/01/01 10:49:28;;;;;;;4.10;2.58;;;;;;;26.65;19.48;97257.75;5045367;28;20017;-92
2021/01/01 10:52:01;;;;;;;7.78;3.80;;;;;;;26.85;20.15;97244.16;5037978;28;20025;-92
2021/01/01 10:54:28;;;;;;;6.18;3.60;;;;;;;26.89;19.29;97259.16;5023191;28;20110;-91
2021/01/01 10:56:54;;;;;;;9.10;5.32;;;;;;;26.61;19.73;97233.66;5025696;28;20032;-89
2021/01/01 10:59:22;;;;;;;6.85;3.30;;;;;;;26.71;18.57;97250.59;5022755;28;20033;-92
2021/01/01 12:25:27;;;;;;;4.57;2.10;;;;;;;22.72;22.79;97274.97;4995735;28;20028;-81
2021/01/01 12:27:57;;;;;;;4.28;2.60;;;;;;;22.69;22.03;97272.59;4993407;28;20055;-82
2021/01/01 12:30:25;;;;;;;10.57;2.55;;;;;;;22.99;21.93;97277.22;4952304;28;20054;-86
2021/01/01 12:32:53;;;;;;;5.65;2.90;;;;;;;23.24;21.66;97275.22;5027885;28;20041;-85
2021/01/01 12:35:21;;;;;;;6.72;2.42;;;;;;;22.89;22.11;97276.59;4982645;28;20426;-86
2021/01/01 12:37:58;;;;;;;8.40;3.03;;;;;;;22.89;22.43;97276.59;5005284;28;20043;-85
2021/01/01 12:40:23;;;;;;;5.32;3.45;;;;;;;23.04;22.52;97280.25;5032505;28;20032;-87
2021/01/01 12:42:49;;;;;;;5.55;2.85;;;;;;;22.10;22.67;97280.25;5036056;28;20029;-85
2021/01/01 12:45:15;;;;;;;4.50;2.97;;;;;;;22.14;22.58;97287.06;4990290;28;20040;-85
2021/01/01 12:47:40;;;;;;;4.18;1.85;;;;;;;22.69;22.03;97286.25;5002117;28;20031;-87
2021/01/01 12:50:07;;;;;;;4.25;2.72;;;;;;;23.74;21.02;97294.69;5035796;28;20025;-85
2021/01/01 12:52:32;;;;;;;5.15;2.70;;;;;;;23.61;21.12;97296.31;5024599;28;20021;-84
2021/01/01 12:54:58;;;;;;;8.60;3.53;;;;;;;24.26;20.92;97300.22;4979131;28;20038;-84